sensor_id;sensor_type;location;lat;lon;timestamp;P1;durP1;ratioP1;P2;durP2;ratioP2
21243;SDS011;10780;50.942;4.028;2023-04-28T00:01:35;35.72;;;19.55;;
21243;SDS011;10780;50.942;4.028;2023-04-28T00:04:01;28.92;;;18.83;;
21243;SDS011;10780;50.942;4.028;2023-04-28T00:06:27;32.75;;;19.77;;
21243;SDS011;10780;50.942;4.028;2023-04-28T00:08:54;29.15;;;18.75;;
21243;SDS011;10780;50.942;4.028;2023-04-28T00:11:20;28.35;;;19.83;;
21243;SDS011;10780;50.942;4.028;2023-04-28T00:13:46;30.90;;;18.83;;
21243;SDS011;10780;50.942;4.028;2023-04-28T00:16:11;32.50;;;20.33;;
21243;SDS011;10780;50.942;4.028;2023-04-28T00:18:37;31.58;;;20.23;;
21243;SDS011;10780;50.942;4.028;2023-04-28T00:21:02;33.20;;;20.25;;
21243;SDS011;10780;50.942;4.028;2023-04-28T00:23:28;34.22;;;20.27;;
21243;SDS011;10780;50.942;4.028;2023-04-28T00:25:54;37.00;;;21.45;;
21243;SDS011;10780;50.942;4.028;2023-04-28T00:28:21;33.63;;;20.85;;
21243;SDS011;10780;50.942;4.028;2023-04-28T00:30:47;28.30;;;19.75;;
21243;SDS011;10780;50.942;4.028;2023-04-28T00:33:12;33.50;;;21.23;;
21243;SDS011;10780;50.942;4.028;2023-04-28T00:35:38;28.55;;;19.77;;
21243;SDS011;10780;50.942;4.028;2023-04-28T00:38:05;29.65;;;19.77;;
21243;SDS011;10780;50.942;4.028;2023-04-28T00:40:35;33.58;;;21.20;;
21243;SDS011;10780;50.942;4.028;2023-04-28T00:43:02;28.02;;;19.40;;
21243;SDS011;10780;50.942;4.028;2023-04-28T00:45:28;30.23;;;20.65;;
21243;SDS011;10780;50.942;4.028;2023-04-28T00:47:54;40.85;;;21.83;;
21243;SDS011;10780;50.942;4.028;2023-04-28T00:50:21;32.35;;;20.83;;
21243;SDS011;10780;50.942;4.028;2023-04-28T00:52:47;31.63;;;20.77;;
21243;SDS011;10780;50.942;4.028;2023-04-28T00:55:14;36.47;;;21.58;;
21243;SDS011;10780;50.942;4.028;2023-04-28T00:57:41;29.35;;;19.67;;
21243;SDS011;10780;50.942;4.028;2023-04-28T01:00:07;30.77;;;20.20;;
21243;SDS011;10780;50.942;4.028;2023-04-28T01:02:34;33.47;;;21.00;;
21243;SDS011;10780;50.942;4.028;2023-04-28T01:05:00;32.42;;;20.35;;
21243;SDS011;10780;50.942;4.028;2023-04-28T01:07:27;31.10;;;20.95;;
21243;SDS011;10780;50.942;4.028;2023-04-28T01:09:53;34.88;;;19.65;;
21243;SDS011;10780;50.942;4.028;2023-04-28T01:12:19;28.63;;;19.10;;
21243;SDS011;10780;50.942;4.028;2023-04-28T01:14:45;31.58;;;19.63;;
21243;SDS011;10780;50.942;4.028;2023-04-28T01:17:12;32.50;;;20.58;;
21243;SDS011;10780;50.942;4.028;2023-04-28T01:19:38;33.90;;;20.35;;
21243;SDS011;10780;50.942;4.028;2023-04-28T01:22:03;30.63;;;19.92;;
21243;SDS011;10780;50.942;4.028;2023-04-28T01:24:29;35.38;;;21.98;;
21243;SDS011;10780;50.942;4.028;2023-04-28T01:26:55;34.70;;;22.08;;
21243;SDS011;10780;50.942;4.028;2023-04-28T01:29:20;35.10;;;21.50;;
21243;SDS011;10780;50.942;4.028;2023-04-28T01:31:46;38.38;;;21.65;;
21243;SDS011;10780;50.942;4.028;2023-04-28T01:34:11;30.33;;;20.60;;
21243;SDS011;10780;50.942;4.028;2023-04-28T01:36:37;34.25;;;21.98;;
21243;SDS011;10780;50.942;4.028;2023-04-28T01:39:03;31.88;;;21.67;;
21243;SDS011;10780;50.942;4.028;2023-04-28T01:41:29;36.17;;;21.60;;
21243;SDS011;10780;50.942;4.028;2023-04-28T01:43:55;35.00;;;22.08;;
21243;SDS011;10780;50.942;4.028;2023-04-28T01:46:20;43.97;;;25.65;;
21243;SDS011;10780;50.942;4.028;2023-04-28T01:48:46;49.42;;;27.13;;
21243;SDS011;10780;50.942;4.028;2023-04-28T01:51:12;43.75;;;24.13;;
21243;SDS011;10780;50.942;4.028;2023-04-28T01:53:37;43.22;;;24.67;;
21243;SDS011;10780;50.942;4.028;2023-04-28T01:56:03;44.05;;;24.83;;
21243;SDS011;10780;50.942;4.028;2023-04-28T01:58:29;39.33;;;23.45;;
21243;SDS011;10780;50.942;4.028;2023-04-28T02:00:54;36.88;;;23.88;;
21243;SDS011;10780;50.942;4.028;2023-04-28T02:03:20;39.47;;;25.08;;
21243;SDS011;10780;50.942;4.028;2023-04-28T02:05:45;41.92;;;24.13;;
21243;SDS011;10780;50.942;4.028;2023-04-28T02:08:11;39.60;;;24.65;;
21243;SDS011;10780;50.942;4.028;2023-04-28T02:10:37;36.97;;;25.05;;
21243;SDS011;10780;50.942;4.028;2023-04-28T02:13:02;39.45;;;23.77;;
21243;SDS011;10780;50.942;4.028;2023-04-28T02:15:28;41.65;;;25.58;;
21243;SDS011;10780;50.942;4.028;2023-04-28T02:17:54;39.92;;;25.30;;
21243;SDS011;10780;50.942;4.028;2023-04-28T02:20:20;41.88;;;25.75;;
21243;SDS011;10780;50.942;4.028;2023-04-28T02:22:45;42.55;;;26.08;;
21243;SDS011;10780;50.942;4.028;2023-04-28T02:25:11;40.35;;;25.63;;
21243;SDS011;10780;50.942;4.028;2023-04-28T02:27:37;39.22;;;24.45;;
21243;SDS011;10780;50.942;4.028;2023-04-28T02:30:05;45.63;;;27.58;;
21243;SDS011;10780;50.942;4.028;2023-04-28T02:32:31;41.78;;;25.70;;
21243;SDS011;10780;50.942;4.028;2023-04-28T02:34:57;40.53;;;26.10;;
21243;SDS011;10780;50.942;4.028;2023-04-28T02:37:23;45.25;;;26.55;;
21243;SDS011;10780;50.942;4.028;2023-04-28T02:39:49;41.90;;;26.95;;
21243;SDS011;10780;50.942;4.028;2023-04-28T02:42:14;44.08;;;28.60;;
21243;SDS011;10780;50.942;4.028;2023-04-28T02:44:40;41.20;;;26.73;;
21243;SDS011;10780;50.942;4.028;2023-04-28T02:47:06;44.58;;;26.17;;
21243;SDS011;10780;50.942;4.028;2023-04-28T02:49:31;46.58;;;27.73;;
21243;SDS011;10780;50.942;4.028;2023-04-28T02:51:57;43.45;;;27.15;;
21243;SDS011;10780;50.942;4.028;2023-04-28T02:54:22;43.92;;;27.60;;
21243;SDS011;10780;50.942;4.028;2023-04-28T02:56:55;44.38;;;28.15;;
21243;SDS011;10780;50.942;4.028;2023-04-28T02:59:22;40.15;;;26.20;;
21243;SDS011;10780;50.942;4.028;2023-04-28T03:01:48;45.22;;;27.77;;
21243;SDS011;10780;50.942;4.028;2023-04-28T03:04:14;40.97;;;26.48;;
21243;SDS011;10780;50.942;4.028;2023-04-28T03:06:40;44.50;;;27.00;;
21243;SDS011;10780;50.942;4.028;2023-04-28T03:09:06;45.13;;;28.98;;
21243;SDS011;10780;50.942;4.028;2023-04-28T03:11:32;45.63;;;26.75;;
21243;SDS011;10780;50.942;4.028;2023-04-28T03:13:58;44.50;;;27.70;;
21243;SDS011;10780;50.942;4.028;2023-04-28T03:16:24;48.60;;;27.52;;
21243;SDS011;10780;50.942;4.028;2023-04-28T03:18:50;43.03;;;27.27;;
21243;SDS011;10780;50.942;4.028;2023-04-28T03:21:15;38.63;;;25.38;;
21243;SDS011;10780;50.942;4.028;2023-04-28T03:23:41;43.97;;;26.10;;
21243;SDS011;10780;50.942;4.028;2023-04-28T03:26:06;43.42;;;27.65;;
21243;SDS011;10780;50.942;4.028;2023-04-28T03:28:32;47.17;;;28.30;;
21243;SDS011;10780;50.942;4.028;2023-04-28T03:30:58;42.22;;;26.98;;
21243;SDS011;10780;50.942;4.028;2023-04-28T03:33:23;42.35;;;27.50;;
21243;SDS011;10780;50.942;4.028;2023-04-28T03:35:49;43.05;;;27.60;;
21243;SDS011;10780;50.942;4.028;2023-04-28T03:38:15;44.83;;;27.05;;
21243;SDS011;10780;50.942;4.028;2023-04-28T03:40:40;46.55;;;28.27;;
21243;SDS011;10780;50.942;4.028;2023-04-28T03:43:06;43.55;;;27.58;;
21243;SDS011;10780;50.942;4.028;2023-04-28T03:45:32;42.90;;;27.83;;
21243;SDS011;10780;50.942;4.028;2023-04-28T03:47:57;47.90;;;28.85;;
21243;SDS011;10780;50.942;4.028;2023-04-28T03:50:23;49.28;;;28.55;;
21243;SDS011;10780;50.942;4.028;2023-04-28T03:52:49;46.50;;;27.65;;
21243;SDS011;10780;50.942;4.028;2023-04-28T03:55:14;46.05;;;27.90;;
21243;SDS011;10780;50.942;4.028;2023-04-28T03:57:40;44.20;;;28.42;;
21243;SDS011;10780;50.942;4.028;2023-04-28T04:00:06;42.80;;;26.98;;
21243;SDS011;10780;50.942;4.028;2023-04-28T04:02:32;45.35;;;27.65;;
21243;SDS011;10780;50.942;4.028;2023-04-28T04:04:58;47.55;;;28.73;;
21243;SDS011;10780;50.942;4.028;2023-04-28T04:07:23;45.53;;;29.20;;
21243;SDS011;10780;50.942;4.028;2023-04-28T04:09:49;44.00;;;28.33;;
21243;SDS011;10780;50.942;4.028;2023-04-28T04:12:15;48.78;;;27.63;;
21243;SDS011;10780;50.942;4.028;2023-04-28T04:14:41;47.03;;;28.98;;
21243;SDS011;10780;50.942;4.028;2023-04-28T04:17:07;47.45;;;28.48;;
21243;SDS011;10780;50.942;4.028;2023-04-28T04:19:33;49.20;;;30.02;;
21243;SDS011;10780;50.942;4.028;2023-04-28T04:21:58;48.83;;;30.15;;
21243;SDS011;10780;50.942;4.028;2023-04-28T04:24:24;49.40;;;29.42;;
21243;SDS011;10780;50.942;4.028;2023-04-28T04:26:50;45.08;;;29.00;;
21243;SDS011;10780;50.942;4.028;2023-04-28T04:29:15;51.55;;;29.52;;
21243;SDS011;10780;50.942;4.028;2023-04-28T04:31:41;42.85;;;29.38;;
21243;SDS011;10780;50.942;4.028;2023-04-28T04:34:09;49.53;;;32.05;;
21243;SDS011;10780;50.942;4.028;2023-04-28T04:36:35;52.53;;;32.35;;
21243;SDS011;10780;50.942;4.028;2023-04-28T04:39:01;46.53;;;28.90;;
21243;SDS011;10780;50.942;4.028;2023-04-28T04:41:26;46.95;;;29.20;;
21243;SDS011;10780;50.942;4.028;2023-04-28T04:43:52;44.20;;;28.83;;
21243;SDS011;10780;50.942;4.028;2023-04-28T04:46:18;47.55;;;29.48;;
21243;SDS011;10780;50.942;4.028;2023-04-28T04:48:44;44.25;;;30.00;;
21243;SDS011;10780;50.942;4.028;2023-04-28T04:51:09;44.35;;;28.17;;
21243;SDS011;10780;50.942;4.028;2023-04-28T04:53:35;46.00;;;30.05;;
21243;SDS011;10780;50.942;4.028;2023-04-28T04:56:01;46.85;;;30.45;;
21243;SDS011;10780;50.942;4.028;2023-04-28T04:58:27;48.47;;;30.30;;
21243;SDS011;10780;50.942;4.028;2023-04-28T05:00:53;50.10;;;29.50;;
21243;SDS011;10780;50.942;4.028;2023-04-28T05:03:19;48.35;;;29.75;;
21243;SDS011;10780;50.942;4.028;2023-04-28T05:05:44;41.60;;;27.73;;
21243;SDS011;10780;50.942;4.028;2023-04-28T05:08:10;47.20;;;29.42;;
21243;SDS011;10780;50.942;4.028;2023-04-28T05:10:36;40.25;;;27.23;;
21243;SDS011;10780;50.942;4.028;2023-04-28T05:13:02;46.42;;;29.20;;
21243;SDS011;10780;50.942;4.028;2023-04-28T05:15:28;42.70;;;28.77;;
21243;SDS011;10780;50.942;4.028;2023-04-28T05:17:54;44.90;;;28.85;;
21243;SDS011;10780;50.942;4.028;2023-04-28T05:20:20;42.10;;;28.10;;
21243;SDS011;10780;50.942;4.028;2023-04-28T05:22:46;42.13;;;28.38;;
21243;SDS011;10780;50.942;4.028;2023-04-28T05:25:12;44.72;;;29.23;;
21243;SDS011;10780;50.942;4.028;2023-04-28T05:27:38;40.50;;;26.90;;
21243;SDS011;10780;50.942;4.028;2023-04-28T05:30:08;39.03;;;27.02;;
21243;SDS011;10780;50.942;4.028;2023-04-28T05:32:34;38.83;;;26.63;;
21243;SDS011;10780;50.942;4.028;2023-04-28T05:35:01;39.42;;;26.70;;
21243;SDS011;10780;50.942;4.028;2023-04-28T05:37:27;36.90;;;24.75;;
21243;SDS011;10780;50.942;4.028;2023-04-28T05:39:53;36.65;;;25.10;;
21243;SDS011;10780;50.942;4.028;2023-04-28T05:42:19;34.40;;;23.90;;
21243;SDS011;10780;50.942;4.028;2023-04-28T05:44:45;35.10;;;23.30;;
21243;SDS011;10780;50.942;4.028;2023-04-28T05:47:10;35.53;;;22.92;;
21243;SDS011;10780;50.942;4.028;2023-04-28T05:49:36;34.67;;;22.60;;
21243;SDS011;10780;50.942;4.028;2023-04-28T05:52:02;31.42;;;22.27;;
21243;SDS011;10780;50.942;4.028;2023-04-28T05:54:28;32.97;;;22.90;;
21243;SDS011;10780;50.942;4.028;2023-04-28T05:56:54;30.73;;;21.98;;
21243;SDS011;10780;50.942;4.028;2023-04-28T05:59:20;28.70;;;20.30;;
21243;SDS011;10780;50.942;4.028;2023-04-28T06:01:45;26.55;;;19.48;;
21243;SDS011;10780;50.942;4.028;2023-04-28T06:04:11;27.50;;;19.40;;
21243;SDS011;10780;50.942;4.028;2023-04-28T06:06:37;21.08;;;16.20;;
21243;SDS011;10780;50.942;4.028;2023-04-28T06:09:02;18.75;;;14.07;;
21243;SDS011;10780;50.942;4.028;2023-04-28T06:11:28;18.70;;;13.85;;
21243;SDS011;10780;50.942;4.028;2023-04-28T06:13:55;15.18;;;12.02;;
21243;SDS011;10780;50.942;4.028;2023-04-28T06:16:21;11.70;;;9.38;;
21243;SDS011;10780;50.942;4.028;2023-04-28T06:18:47;9.98;;;8.73;;
21243;SDS011;10780;50.942;4.028;2023-04-28T06:21:13;10.27;;;7.47;;
21243;SDS011;10780;50.942;4.028;2023-04-28T06:23:39;8.35;;;6.95;;
21243;SDS011;10780;50.942;4.028;2023-04-28T06:26:06;8.10;;;7.30;;
21243;SDS011;10780;50.942;4.028;2023-04-28T06:28:33;8.05;;;6.25;;
21243;SDS011;10780;50.942;4.028;2023-04-28T06:31:02;7.13;;;6.43;;
21243;SDS011;10780;50.942;4.028;2023-04-28T06:33:27;6.65;;;5.95;;
21243;SDS011;10780;50.942;4.028;2023-04-28T06:35:53;6.25;;;5.65;;
21243;SDS011;10780;50.942;4.028;2023-04-28T06:38:19;6.55;;;5.57;;
21243;SDS011;10780;50.942;4.028;2023-04-28T06:40:45;6.32;;;5.47;;
21243;SDS011;10780;50.942;4.028;2023-04-28T06:43:11;6.25;;;5.65;;
21243;SDS011;10780;50.942;4.028;2023-04-28T06:45:37;6.55;;;5.50;;
21243;SDS011;10780;50.942;4.028;2023-04-28T06:48:03;6.60;;;5.90;;
21243;SDS011;10780;50.942;4.028;2023-04-28T06:50:30;6.78;;;6.07;;
21243;SDS011;10780;50.942;4.028;2023-04-28T06:52:55;7.95;;;6.07;;
21243;SDS011;10780;50.942;4.028;2023-04-28T06:55:24;7.38;;;6.07;;
21243;SDS011;10780;50.942;4.028;2023-04-28T06:57:50;7.03;;;6.32;;
21243;SDS011;10780;50.942;4.028;2023-04-28T07:00:16;6.22;;;5.38;;
21243;SDS011;10780;50.942;4.028;2023-04-28T07:02:42;6.13;;;5.63;;
21243;SDS011;10780;50.942;4.028;2023-04-28T07:05:07;5.32;;;4.82;;
21243;SDS011;10780;50.942;4.028;2023-04-28T07:07:33;6.45;;;5.85;;
21243;SDS011;10780;50.942;4.028;2023-04-28T07:09:59;5.82;;;5.28;;
21243;SDS011;10780;50.942;4.028;2023-04-28T07:12:25;7.65;;;5.40;;
21243;SDS011;10780;50.942;4.028;2023-04-28T07:14:51;5.53;;;5.03;;
21243;SDS011;10780;50.942;4.028;2023-04-28T07:17:17;5.75;;;5.22;;
21243;SDS011;10780;50.942;4.028;2023-04-28T07:19:43;5.22;;;4.72;;
21243;SDS011;10780;50.942;4.028;2023-04-28T07:22:08;5.90;;;5.13;;
21243;SDS011;10780;50.942;4.028;2023-04-28T07:24:34;5.82;;;5.32;;
21243;SDS011;10780;50.942;4.028;2023-04-28T07:27:00;4.85;;;4.45;;
21243;SDS011;10780;50.942;4.028;2023-04-28T07:29:28;4.47;;;4.07;;
21243;SDS011;10780;50.942;4.028;2023-04-28T07:31:58;4.47;;;4.07;;
21243;SDS011;10780;50.942;4.028;2023-04-28T07:34:25;4.60;;;4.20;;
21243;SDS011;10780;50.942;4.028;2023-04-28T07:36:51;4.53;;;4.10;;
21243;SDS011;10780;50.942;4.028;2023-04-28T07:39:17;4.22;;;3.83;;
21243;SDS011;10780;50.942;4.028;2023-04-28T07:41:42;3.70;;;3.40;;
21243;SDS011;10780;50.942;4.028;2023-04-28T07:44:08;4.30;;;3.58;;
21243;SDS011;10780;50.942;4.028;2023-04-28T07:46:34;3.40;;;3.10;;
21243;SDS011;10780;50.942;4.028;2023-04-28T07:49:00;3.47;;;3.17;;
21243;SDS011;10780;50.942;4.028;2023-04-28T07:51:26;3.70;;;3.40;;
21243;SDS011;10780;50.942;4.028;2023-04-28T07:53:52;3.55;;;2.90;;
21243;SDS011;10780;50.942;4.028;2023-04-28T07:56:19;4.72;;;2.83;;
21243;SDS011;10780;50.942;4.028;2023-04-28T07:58:45;3.05;;;2.85;;
21243;SDS011;10780;50.942;4.028;2023-04-28T08:01:11;3.40;;;3.10;;
21243;SDS011;10780;50.942;4.028;2023-04-28T08:03:37;3.35;;;3.15;;
21243;SDS011;10780;50.942;4.028;2023-04-28T08:06:03;3.85;;;3.47;;
21243;SDS011;10780;50.942;4.028;2023-04-28T08:08:29;3.60;;;3.30;;
21243;SDS011;10780;50.942;4.028;2023-04-28T08:10:58;3.30;;;3.10;;
21243;SDS011;10780;50.942;4.028;2023-04-28T08:13:24;4.50;;;3.08;;
21243;SDS011;10780;50.942;4.028;2023-04-28T08:15:51;3.03;;;2.80;;
21243;SDS011;10780;50.942;4.028;2023-04-28T08:18:17;3.20;;;2.88;;
21243;SDS011;10780;50.942;4.028;2023-04-28T08:20:43;3.47;;;2.83;;
21243;SDS011;10780;50.942;4.028;2023-04-28T08:23:09;2.83;;;2.63;;
21243;SDS011;10780;50.942;4.028;2023-04-28T08:25:35;2.72;;;2.50;;
21243;SDS011;10780;50.942;4.028;2023-04-28T08:28:01;2.50;;;2.30;;
21243;SDS011;10780;50.942;4.028;2023-04-28T08:30:27;2.00;;;1.90;;
21243;SDS011;10780;50.942;4.028;2023-04-28T08:32:53;2.88;;;1.90;;
21243;SDS011;10780;50.942;4.028;2023-04-28T08:35:19;1.98;;;1.88;;
21243;SDS011;10780;50.942;4.028;2023-04-28T08:37:45;2.67;;;1.65;;
21243;SDS011;10780;50.942;4.028;2023-04-28T08:40:13;2.20;;;1.50;;
21243;SDS011;10780;50.942;4.028;2023-04-28T08:42:40;2.50;;;1.80;;
21243;SDS011;10780;50.942;4.028;2023-04-28T08:45:06;2.13;;;2.00;;
21243;SDS011;10780;50.942;4.028;2023-04-28T08:47:37;2.40;;;2.20;;
21243;SDS011;10780;50.942;4.028;2023-04-28T08:50:10;2.28;;;2.17;;
21243;SDS011;10780;50.942;4.028;2023-04-28T08:52:36;2.30;;;2.00;;
21243;SDS011;10780;50.942;4.028;2023-04-28T08:55:10;2.13;;;1.80;;
21243;SDS011;10780;50.942;4.028;2023-04-28T08:57:49;2.03;;;1.92;;
21243;SDS011;10780;50.942;4.028;2023-04-28T09:00:18;3.17;;;2.20;;
21243;SDS011;10780;50.942;4.028;2023-04-28T09:02:44;3.17;;;1.90;;
21243;SDS011;10780;50.942;4.028;2023-04-28T09:05:13;1.50;;;1.40;;
21243;SDS011;10780;50.942;4.028;2023-04-28T09:07:39;1.90;;;1.80;;
21243;SDS011;10780;50.942;4.028;2023-04-28T09:10:15;1.60;;;1.50;;
21243;SDS011;10780;50.942;4.028;2023-04-28T09:12:42;1.70;;;1.60;;
21243;SDS011;10780;50.942;4.028;2023-04-28T09:15:08;2.00;;;1.60;;
21243;SDS011;10780;50.942;4.028;2023-04-28T09:17:50;1.40;;;1.30;;
21243;SDS011;10780;50.942;4.028;2023-04-28T09:20:24;1.50;;;1.33;;
21243;SDS011;10780;50.942;4.028;2023-04-28T09:22:51;1.70;;;1.60;;
21243;SDS011;10780;50.942;4.028;2023-04-28T09:25:18;1.30;;;1.23;;
21243;SDS011;10780;50.942;4.028;2023-04-28T09:27:47;3.33;;;1.20;;
21243;SDS011;10780;50.942;4.028;2023-04-28T09:30:13;1.33;;;1.23;;
21243;SDS011;10780;50.942;4.028;2023-04-28T09:32:39;1.40;;;1.30;;
21243;SDS011;10780;50.942;4.028;2023-04-28T09:35:05;2.08;;;1.55;;
21243;SDS011;10780;50.942;4.028;2023-04-28T09:37:32;1.50;;;1.40;;
21243;SDS011;10780;50.942;4.028;2023-04-28T09:40:02;4.55;;;1.60;;
21243;SDS011;10780;50.942;4.028;2023-04-28T09:42:35;1.58;;;1.48;;
21243;SDS011;10780;50.942;4.028;2023-04-28T09:45:11;2.33;;;1.50;;
21243;SDS011;10780;50.942;4.028;2023-04-28T09:47:42;1.30;;;1.23;;
21243;SDS011;10780;50.942;4.028;2023-04-28T09:50:12;1.52;;;1.10;;
21243;SDS011;10780;50.942;4.028;2023-04-28T09:52:41;1.00;;;1.00;;
21243;SDS011;10780;50.942;4.028;2023-04-28T09:55:09;1.98;;;1.10;;
21243;SDS011;10780;50.942;4.028;2023-04-28T09:57:36;1.80;;;1.70;;
21243;SDS011;10780;50.942;4.028;2023-04-28T10:00:03;1.83;;;1.40;;
21243;SDS011;10780;50.942;4.028;2023-04-28T10:02:30;3.60;;;1.48;;
21243;SDS011;10780;50.942;4.028;2023-04-28T10:04:58;1.48;;;1.38;;
21243;SDS011;10780;50.942;4.028;2023-04-28T10:07:24;1.55;;;1.30;;
21243;SDS011;10780;50.942;4.028;2023-04-28T10:09:51;2.65;;;1.40;;
21243;SDS011;10780;50.942;4.028;2023-04-28T10:12:21;1.70;;;1.60;;
21243;SDS011;10780;50.942;4.028;2023-04-28T10:14:49;1.85;;;1.40;;
21243;SDS011;10780;50.942;4.028;2023-04-28T10:17:19;1.42;;;1.33;;
21243;SDS011;10780;50.942;4.028;2023-04-28T10:19:46;1.50;;;1.40;;
21243;SDS011;10780;50.942;4.028;2023-04-28T10:22:32;3.13;;;1.77;;
21243;SDS011;10780;50.942;4.028;2023-04-28T10:25:24;4.20;;;1.92;;
21243;SDS011;10780;50.942;4.028;2023-04-28T10:27:52;2.05;;;1.80;;
21243;SDS011;10780;50.942;4.028;2023-04-28T10:30:19;3.00;;;2.00;;
21243;SDS011;10780;50.942;4.028;2023-04-28T10:32:47;2.30;;;1.80;;
21243;SDS011;10780;50.942;4.028;2023-04-28T10:35:41;2.42;;;2.22;;
21243;SDS011;10780;50.942;4.028;2023-04-28T10:38:15;2.38;;;2.28;;
21243;SDS011;10780;50.942;4.028;2023-04-28T10:40:45;2.00;;;1.90;;
21243;SDS011;10780;50.942;4.028;2023-04-28T10:43:13;2.33;;;1.80;;
21243;SDS011;10780;50.942;4.028;2023-04-28T10:45:58;2.20;;;2.10;;
21243;SDS011;10780;50.942;4.028;2023-04-28T10:56:09;2.47;;;1.60;;
21243;SDS011;10780;50.942;4.028;2023-04-28T10:58:36;2.25;;;1.95;;
21243;SDS011;10780;50.942;4.028;2023-04-28T11:03:48;2.10;;;2.00;;
21243;SDS011;10780;50.942;4.028;2023-04-28T11:08:55;2.22;;;2.03;;
21243;SDS011;10780;50.942;4.028;2023-04-28T11:14:30;2.88;;;1.80;;
21243;SDS011;10780;50.942;4.028;2023-04-28T11:17:01;2.13;;;2.03;;
21243;SDS011;10780;50.942;4.028;2023-04-28T11:19:32;2.10;;;2.00;;
21243;SDS011;10780;50.942;4.028;2023-04-28T11:21:59;2.20;;;2.10;;
21243;SDS011;10780;50.942;4.028;2023-04-28T11:24:27;3.45;;;2.00;;
21243;SDS011;10780;50.942;4.028;2023-04-28T11:26:54;2.60;;;1.85;;
21243;SDS011;10780;50.942;4.028;2023-04-28T11:29:36;3.35;;;2.15;;
21243;SDS011;10780;50.942;4.028;2023-04-28T11:32:07;2.75;;;2.55;;
21243;SDS011;10780;50.942;4.028;2023-04-28T11:34:34;3.28;;;2.45;;
21243;SDS011;10780;50.942;4.028;2023-04-28T11:37:00;2.90;;;2.70;;
21243;SDS011;10780;50.942;4.028;2023-04-28T11:39:31;3.15;;;2.95;;
21243;SDS011;10780;50.942;4.028;2023-04-28T11:41:58;2.22;;;2.03;;
21243;SDS011;10780;50.942;4.028;2023-04-28T11:44:26;2.30;;;2.10;;
21243;SDS011;10780;50.942;4.028;2023-04-28T11:46:53;2.00;;;1.90;;
21243;SDS011;10780;50.942;4.028;2023-04-28T11:49:28;1.60;;;1.50;;
21243;SDS011;10780;50.942;4.028;2023-04-28T11:52:02;2.22;;;1.63;;
21243;SDS011;10780;50.942;4.028;2023-04-28T11:54:29;1.73;;;1.60;;
21243;SDS011;10780;50.942;4.028;2023-04-28T11:56:56;1.70;;;1.60;;
21243;SDS011;10780;50.942;4.028;2023-04-28T11:59:27;2.40;;;1.45;;
21243;SDS011;10780;50.942;4.028;2023-04-28T12:01:58;1.60;;;1.50;;
21243;SDS011;10780;50.942;4.028;2023-04-28T12:07:01;2.22;;;1.88;;
21243;SDS011;10780;50.942;4.028;2023-04-28T12:09:27;3.45;;;2.30;;
21243;SDS011;10780;50.942;4.028;2023-04-28T12:12:00;2.25;;;2.10;;
21243;SDS011;10780;50.942;4.028;2023-04-28T12:14:27;2.65;;;2.13;;
21243;SDS011;10780;50.942;4.028;2023-04-28T12:16:54;2.22;;;1.90;;
21243;SDS011;10780;50.942;4.028;2023-04-28T12:19:20;2.22;;;2.00;;
21243;SDS011;10780;50.942;4.028;2023-04-28T12:22:00;2.55;;;2.15;;
21243;SDS011;10780;50.942;4.028;2023-04-28T12:24:29;2.13;;;2.03;;
21243;SDS011;10780;50.942;4.028;2023-04-28T12:29:46;2.40;;;2.20;;
21243;SDS011;10780;50.942;4.028;2023-04-28T12:32:12;1.67;;;1.58;;
21243;SDS011;10780;50.942;4.028;2023-04-28T12:34:40;2.00;;;1.90;;
21243;SDS011;10780;50.942;4.028;2023-04-28T12:37:08;2.40;;;1.80;;
21243;SDS011;10780;50.942;4.028;2023-04-28T12:39:34;3.55;;;2.08;;
21243;SDS011;10780;50.942;4.028;2023-04-28T12:42:01;3.35;;;2.42;;
21243;SDS011;10780;50.942;4.028;2023-04-28T12:44:30;2.47;;;2.28;;
21243;SDS011;10780;50.942;4.028;2023-04-28T12:47:00;2.40;;;1.92;;
21243;SDS011;10780;50.942;4.028;2023-04-28T12:49:29;4.22;;;2.33;;
21243;SDS011;10780;50.942;4.028;2023-04-28T12:51:55;1.98;;;1.88;;
21243;SDS011;10780;50.942;4.028;2023-04-28T12:54:21;2.35;;;2.15;;
21243;SDS011;10780;50.942;4.028;2023-04-28T12:56:46;2.50;;;2.30;;
21243;SDS011;10780;50.942;4.028;2023-04-28T12:59:13;2.35;;;2.15;;
21243;SDS011;10780;50.942;4.028;2023-04-28T13:01:38;3.10;;;2.47;;
21243;SDS011;10780;50.942;4.028;2023-04-28T13:04:04;2.35;;;2.13;;
21243;SDS011;10780;50.942;4.028;2023-04-28T13:06:30;2.80;;;2.50;;
21243;SDS011;10780;50.942;4.028;2023-04-28T13:08:56;2.83;;;2.47;;
21243;SDS011;10780;50.942;4.028;2023-04-28T13:11:22;3.75;;;2.33;;
21243;SDS011;10780;50.942;4.028;2023-04-28T13:13:51;3.35;;;2.40;;
21243;SDS011;10780;50.942;4.028;2023-04-28T13:16:17;2.95;;;2.17;;
21243;SDS011;10780;50.942;4.028;2023-04-28T13:18:43;2.97;;;2.30;;
21243;SDS011;10780;50.942;4.028;2023-04-28T13:21:08;3.90;;;2.47;;
21243;SDS011;10780;50.942;4.028;2023-04-28T13:23:34;3.10;;;2.80;;
21243;SDS011;10780;50.942;4.028;2023-04-28T13:25:59;3.22;;;2.92;;
21243;SDS011;10780;50.942;4.028;2023-04-28T13:28:26;3.90;;;3.33;;
21243;SDS011;10780;50.942;4.028;2023-04-28T13:30:52;4.88;;;3.10;;
21243;SDS011;10780;50.942;4.028;2023-04-28T13:33:18;5.07;;;3.50;;
21243;SDS011;10780;50.942;4.028;2023-04-28T13:35:43;4.35;;;3.00;;
21243;SDS011;10780;50.942;4.028;2023-04-28T13:38:09;5.07;;;3.58;;
21243;SDS011;10780;50.942;4.028;2023-04-28T13:40:34;4.60;;;3.45;;
21243;SDS011;10780;50.942;4.028;2023-04-28T13:43:00;4.53;;;3.55;;
21243;SDS011;10780;50.942;4.028;2023-04-28T13:45:25;4.80;;;3.70;;
21243;SDS011;10780;50.942;4.028;2023-04-28T13:47:55;4.40;;;3.33;;
21243;SDS011;10780;50.942;4.028;2023-04-28T13:50:21;3.75;;;3.42;;
21243;SDS011;10780;50.942;4.028;2023-04-28T13:52:47;4.43;;;3.47;;
21243;SDS011;10780;50.942;4.028;2023-04-28T13:55:12;4.65;;;3.40;;
21243;SDS011;10780;50.942;4.028;2023-04-28T13:57:38;4.53;;;3.42;;
21243;SDS011;10780;50.942;4.028;2023-04-28T14:00:05;5.00;;;3.85;;
21243;SDS011;10780;50.942;4.028;2023-04-28T14:02:31;5.53;;;3.10;;
21243;SDS011;10780;50.942;4.028;2023-04-28T14:04:57;3.42;;;2.72;;
21243;SDS011;10780;50.942;4.028;2023-04-28T14:07:23;3.53;;;2.60;;
21243;SDS011;10780;50.942;4.028;2023-04-28T14:09:49;2.50;;;2.30;;
21243;SDS011;10780;50.942;4.028;2023-04-28T14:12:15;4.75;;;2.17;;
21243;SDS011;10780;50.942;4.028;2023-04-28T14:14:40;2.63;;;2.42;;
21243;SDS011;10780;50.942;4.028;2023-04-28T14:17:07;3.88;;;2.58;;
21243;SDS011;10780;50.942;4.028;2023-04-28T14:19:32;2.42;;;2.22;;
21243;SDS011;10780;50.942;4.028;2023-04-28T14:21:58;4.45;;;2.40;;
21243;SDS011;10780;50.942;4.028;2023-04-28T14:24:24;3.92;;;2.83;;
21243;SDS011;10780;50.942;4.028;2023-04-28T14:26:49;3.03;;;2.28;;
21243;SDS011;10780;50.942;4.028;2023-04-28T14:29:16;2.92;;;2.20;;
21243;SDS011;10780;50.942;4.028;2023-04-28T14:31:42;3.03;;;2.45;;
21243;SDS011;10780;50.942;4.028;2023-04-28T14:34:08;3.00;;;1.70;;
21243;SDS011;10780;50.942;4.028;2023-04-28T14:36:33;5.53;;;2.40;;
21243;SDS011;10780;50.942;4.028;2023-04-28T14:39:00;2.17;;;1.80;;
21243;SDS011;10780;50.942;4.028;2023-04-28T14:41:26;2.00;;;1.90;;
21243;SDS011;10780;50.942;4.028;2023-04-28T14:43:52;2.50;;;1.70;;
21243;SDS011;10780;50.942;4.028;2023-04-28T14:46:17;1.98;;;1.83;;
21243;SDS011;10780;50.942;4.028;2023-04-28T14:48:47;3.90;;;2.22;;
21243;SDS011;10780;50.942;4.028;2023-04-28T14:51:13;3.05;;;2.00;;
21243;SDS011;10780;50.942;4.028;2023-04-28T14:53:39;1.60;;;1.50;;
21243;SDS011;10780;50.942;4.028;2023-04-28T14:56:06;1.42;;;1.33;;